首页
METAR-TAF:

METAR-TAF

机场 :

尚贝里 / 艾克斯-就业辅导组班, 法国

纬度: 45-39N, 经度: 005-53E, 海拔: 235米

当前天气观测

该预报发布于17分钟前的13:00 UTC
风速6节,风向
温度 19°C
湿度 40%
气压 1026 hPa
能见度10公里或以上
1500米以下无云,无积雨云

METAR: LFLB 071300Z AUTO 35006KT CAVOK 19/05 Q1026

时间: 15:17 (13:17 UTC)

预报

该预报发布于26小时和17分钟前的11:00 UTC
预报有效从06日的 12点(UTC)到 07日的 12点(UTC)
风速5节,风向
能见度10公里或以上
1500米以下无云,无积雨云

TAF: LFLB 061100Z 0612/0712 36005KT CAVOK

超过4000个机场的气象观测和天气预报(METAR&TAF报告)。

可查询的气象台以黄色和红色小点在地图上表示。

将鼠标移到小点上方,可查看气象台名称。

然后点击查看天气观测和预报。

如需切换地图:点击带黑十字的绿色按钮放大地图;点击带横线的绿色按钮缩小地图;或者点击绿色箭头查看邻近地区的地图。


METAR-TAF: